sensor_id;sensor_type;location;lat;lon;timestamp;temperature;humidity
20654;DHT22;21083;50.898;4.902;2023-12-14T00:00:56;10.00;99.90
20654;DHT22;21083;50.898;4.902;2023-12-14T00:03:23;10.10;99.90
20654;DHT22;21083;50.898;4.902;2023-12-14T00:05:50;10.00;99.90
20654;DHT22;21083;50.898;4.902;2023-12-14T00:08:18;10.00;99.90
20654;DHT22;21083;50.898;4.902;2023-12-14T00:10:45;10.00;99.90
20654;DHT22;21083;50.898;4.902;2023-12-14T00:13:12;10.10;99.90
20654;DHT22;21083;50.898;4.902;2023-12-14T00:15:39;10.00;99.90
20654;DHT22;21083;50.898;4.902;2023-12-14T00:18:06;10.10;99.90
20654;DHT22;21083;50.898;4.902;2023-12-14T00:20:33;10.00;99.90
20654;DHT22;21083;50.898;4.902;2023-12-14T00:23:00;10.00;99.90
20654;DHT22;21083;50.898;4.902;2023-12-14T00:25:28;10.00;99.90
20654;DHT22;21083;50.898;4.902;2023-12-14T00:27:55;10.10;99.90
20654;DHT22;21083;50.898;4.902;2023-12-14T00:30:22;10.10;99.90
20654;DHT22;21083;50.898;4.902;2023-12-14T00:32:49;10.10;99.90
20654;DHT22;21083;50.898;4.902;2023-12-14T00:35:16;10.10;99.90
20654;DHT22;21083;50.898;4.902;2023-12-14T00:37:43;10.10;99.90
20654;DHT22;21083;50.898;4.902;2023-12-14T00:40:10;10.10;99.90
20654;DHT22;21083;50.898;4.902;2023-12-14T00:42:39;10.00;99.90
20654;DHT22;21083;50.898;4.902;2023-12-14T00:45:07;10.00;99.90
20654;DHT22;21083;50.898;4.902;2023-12-14T00:47:34;10.10;99.90
20654;DHT22;21083;50.898;4.902;2023-12-14T00:50:01;10.10;99.90
20654;DHT22;21083;50.898;4.902;2023-12-14T00:52:28;10.10;99.90
20654;DHT22;21083;50.898;4.902;2023-12-14T00:54:55;10.10;99.90
20654;DHT22;21083;50.898;4.902;2023-12-14T00:57:22;10.10;99.90
20654;DHT22;21083;50.898;4.902;2023-12-14T00:59:50;10.10;99.90
20654;DHT22;21083;50.898;4.902;2023-12-14T01:02:17;10.10;99.90
20654;DHT22;21083;50.898;4.902;2023-12-14T01:04:44;10.10;99.90
20654;DHT22;21083;50.898;4.902;2023-12-14T01:07:11;10.10;99.90
20654;DHT22;21083;50.898;4.902;2023-12-14T01:09:38;10.10;99.90
20654;DHT22;21083;50.898;4.902;2023-12-14T01:12:06;10.10;99.90
20654;DHT22;21083;50.898;4.902;2023-12-14T01:14:33;10.10;99.90
20654;DHT22;21083;50.898;4.902;2023-12-14T01:17:01;10.20;99.90
20654;DHT22;21083;50.898;4.902;2023-12-14T01:19:28;10.20;99.90
20654;DHT22;21083;50.898;4.902;2023-12-14T01:21:55;10.20;99.90
20654;DHT22;21083;50.898;4.902;2023-12-14T01:24:22;10.20;99.90
20654;DHT22;21083;50.898;4.902;2023-12-14T01:26:49;10.10;99.90
20654;DHT22;21083;50.898;4.902;2023-12-14T01:29:16;10.10;99.90
20654;DHT22;21083;50.898;4.902;2023-12-14T01:31:43;10.10;99.90
20654;DHT22;21083;50.898;4.902;2023-12-14T01:34:11;10.10;99.90
20654;DHT22;21083;50.898;4.902;2023-12-14T01:36:40;10.10;99.90
20654;DHT22;21083;50.898;4.902;2023-12-14T01:39:07;10.10;99.90
20654;DHT22;21083;50.898;4.902;2023-12-14T01:41:34;10.10;99.90
20654;DHT22;21083;50.898;4.902;2023-12-14T01:44:01;10.10;99.90
20654;DHT22;21083;50.898;4.902;2023-12-14T01:46:28;10.10;99.90
20654;DHT22;21083;50.898;4.902;2023-12-14T01:48:55;10.00;99.90
20654;DHT22;21083;50.898;4.902;2023-12-14T01:51:23;9.90;99.90
20654;DHT22;21083;50.898;4.902;2023-12-14T01:53:50;9.90;99.90
20654;DHT22;21083;50.898;4.902;2023-12-14T01:56:17;9.90;99.90
20654;DHT22;21083;50.898;4.902;2023-12-14T01:58:44;9.80;99.90
20654;DHT22;21083;50.898;4.902;2023-12-14T02:01:18;9.70;99.90
20654;DHT22;21083;50.898;4.902;2023-12-14T02:03:49;9.70;99.90
20654;DHT22;21083;50.898;4.902;2023-12-14T02:06:16;9.70;99.90
20654;DHT22;21083;50.898;4.902;2023-12-14T02:08:45;9.60;99.90
20654;DHT22;21083;50.898;4.902;2023-12-14T02:11:12;9.60;99.90
20654;DHT22;21083;50.898;4.902;2023-12-14T02:13:39;9.60;99.90
20654;DHT22;21083;50.898;4.902;2023-12-14T02:16:06;9.60;99.90
20654;DHT22;21083;50.898;4.902;2023-12-14T02:18:33;9.50;99.90
20654;DHT22;21083;50.898;4.902;2023-12-14T02:21:00;9.50;99.90
20654;DHT22;21083;50.898;4.902;2023-12-14T02:23:28;9.40;99.90
20654;DHT22;21083;50.898;4.902;2023-12-14T02:25:56;9.30;99.90
20654;DHT22;21083;50.898;4.902;2023-12-14T02:28:23;9.20;99.90
20654;DHT22;21083;50.898;4.902;2023-12-14T02:30:50;9.20;99.90
20654;DHT22;21083;50.898;4.902;2023-12-14T02:33:17;9.30;99.90
20654;DHT22;21083;50.898;4.902;2023-12-14T02:35:43;9.40;99.90
20654;DHT22;21083;50.898;4.902;2023-12-14T02:38:10;9.30;99.90
20654;DHT22;21083;50.898;4.902;2023-12-14T02:40:39;9.30;99.90
20654;DHT22;21083;50.898;4.902;2023-12-14T02:43:06;9.20;99.90
20654;DHT22;21083;50.898;4.902;2023-12-14T02:45:32;9.10;99.90
20654;DHT22;21083;50.898;4.902;2023-12-14T02:47:59;9.20;99.90
20654;DHT22;21083;50.898;4.902;2023-12-14T02:50:26;9.20;99.90
20654;DHT22;21083;50.898;4.902;2023-12-14T02:52:53;9.20;99.90
20654;DHT22;21083;50.898;4.902;2023-12-14T02:55:20;9.20;99.90
20654;DHT22;21083;50.898;4.902;2023-12-14T02:57:49;9.20;99.90
20654;DHT22;21083;50.898;4.902;2023-12-14T03:00:16;9.10;99.90
20654;DHT22;21083;50.898;4.902;2023-12-14T03:02:43;9.20;99.90
20654;DHT22;21083;50.898;4.902;2023-12-14T03:05:10;9.20;99.90
20654;DHT22;21083;50.898;4.902;2023-12-14T03:07:37;9.10;99.90
20654;DHT22;21083;50.898;4.902;2023-12-14T03:10:05;9.10;99.90
20654;DHT22;21083;50.898;4.902;2023-12-14T03:12:32;9.10;99.90
20654;DHT22;21083;50.898;4.902;2023-12-14T03:15:00;9.10;99.90
20654;DHT22;21083;50.898;4.902;2023-12-14T03:17:28;9.10;99.90
20654;DHT22;21083;50.898;4.902;2023-12-14T03:19:55;9.00;99.90
20654;DHT22;21083;50.898;4.902;2023-12-14T03:22:21;9.00;99.90
20654;DHT22;21083;50.898;4.902;2023-12-14T03:24:48;9.00;99.90
20654;DHT22;21083;50.898;4.902;2023-12-14T03:27:15;9.00;99.90
20654;DHT22;21083;50.898;4.902;2023-12-14T03:29:42;9.10;99.90
20654;DHT22;21083;50.898;4.902;2023-12-14T03:32:10;9.00;99.90
20654;DHT22;21083;50.898;4.902;2023-12-14T03:34:37;9.00;99.90
20654;DHT22;21083;50.898;4.902;2023-12-14T03:37:04;8.90;99.90
20654;DHT22;21083;50.898;4.902;2023-12-14T03:39:31;8.80;99.90
20654;DHT22;21083;50.898;4.902;2023-12-14T03:41:58;8.80;99.90
20654;DHT22;21083;50.898;4.902;2023-12-14T03:44:25;8.80;99.90
20654;DHT22;21083;50.898;4.902;2023-12-14T03:46:52;8.70;99.90
20654;DHT22;21083;50.898;4.902;2023-12-14T03:49:21;8.60;99.90
20654;DHT22;21083;50.898;4.902;2023-12-14T03:51:48;8.60;99.90
20654;DHT22;21083;50.898;4.902;2023-12-14T03:54:15;8.60;99.90
20654;DHT22;21083;50.898;4.902;2023-12-14T03:56:42;8.60;99.90
20654;DHT22;21083;50.898;4.902;2023-12-14T03:59:09;8.70;99.90
20654;DHT22;21083;50.898;4.902;2023-12-14T04:01:36;8.60;99.90
20654;DHT22;21083;50.898;4.902;2023-12-14T04:04:05;8.60;99.90
20654;DHT22;21083;50.898;4.902;2023-12-14T04:06:33;8.60;99.90
20654;DHT22;21083;50.898;4.902;2023-12-14T04:09:00;8.60;99.90
20654;DHT22;21083;50.898;4.902;2023-12-14T04:11:27;8.60;99.90
20654;DHT22;21083;50.898;4.902;2023-12-14T04:13:55;8.70;99.90
20654;DHT22;21083;50.898;4.902;2023-12-14T04:16:22;8.50;99.90
20654;DHT22;21083;50.898;4.902;2023-12-14T04:18:49;8.60;99.90
20654;DHT22;21083;50.898;4.902;2023-12-14T04:21:16;8.50;99.90
20654;DHT22;21083;50.898;4.902;2023-12-14T04:23:44;8.40;99.90
20654;DHT22;21083;50.898;4.902;2023-12-14T04:26:11;8.40;99.90
20654;DHT22;21083;50.898;4.902;2023-12-14T04:28:39;8.40;99.90
20654;DHT22;21083;50.898;4.902;2023-12-14T04:31:09;8.40;99.90
20654;DHT22;21083;50.898;4.902;2023-12-14T04:33:37;8.40;99.90
20654;DHT22;21083;50.898;4.902;2023-12-14T04:36:04;8.30;99.90
20654;DHT22;21083;50.898;4.902;2023-12-14T04:38:31;8.40;99.90
20654;DHT22;21083;50.898;4.902;2023-12-14T04:41:00;8.30;99.90
20654;DHT22;21083;50.898;4.902;2023-12-14T04:43:27;8.30;99.90
20654;DHT22;21083;50.898;4.902;2023-12-14T04:45:55;8.30;99.90
20654;DHT22;21083;50.898;4.902;2023-12-14T04:48:22;8.20;99.90
20654;DHT22;21083;50.898;4.902;2023-12-14T04:50:49;8.00;99.90
20654;DHT22;21083;50.898;4.902;2023-12-14T04:53:16;7.90;99.90
20654;DHT22;21083;50.898;4.902;2023-12-14T04:55:43;7.90;99.90
20654;DHT22;21083;50.898;4.902;2023-12-14T04:58:11;7.90;99.90
20654;DHT22;21083;50.898;4.902;2023-12-14T05:00:38;7.90;99.90
20654;DHT22;21083;50.898;4.902;2023-12-14T05:03:05;7.70;99.90
20654;DHT22;21083;50.898;4.902;2023-12-14T05:05:32;7.80;99.90
20654;DHT22;21083;50.898;4.902;2023-12-14T05:07:59;7.70;99.90
20654;DHT22;21083;50.898;4.902;2023-12-14T05:10:26;7.70;99.90
20654;DHT22;21083;50.898;4.902;2023-12-14T05:12:53;7.50;99.90
20654;DHT22;21083;50.898;4.902;2023-12-14T05:15:21;7.30;99.90
20654;DHT22;21083;50.898;4.902;2023-12-14T05:17:48;7.20;99.90
20654;DHT22;21083;50.898;4.902;2023-12-14T05:20:15;7.30;99.90
20654;DHT22;21083;50.898;4.902;2023-12-14T05:22:42;7.30;99.90
20654;DHT22;21083;50.898;4.902;2023-12-14T05:25:09;7.40;99.90
20654;DHT22;21083;50.898;4.902;2023-12-14T05:27:36;7.50;99.90
20654;DHT22;21083;50.898;4.902;2023-12-14T05:30:04;7.70;99.90
20654;DHT22;21083;50.898;4.902;2023-12-14T05:32:32;7.60;99.90
20654;DHT22;21083;50.898;4.902;2023-12-14T05:35:00;7.50;99.90
20654;DHT22;21083;50.898;4.902;2023-12-14T05:37:27;7.50;99.90
20654;DHT22;21083;50.898;4.902;2023-12-14T05:39:54;7.40;99.90
20654;DHT22;21083;50.898;4.902;2023-12-14T05:42:21;7.60;99.90
20654;DHT22;21083;50.898;4.902;2023-12-14T05:44:48;7.60;99.90
20654;DHT22;21083;50.898;4.902;2023-12-14T05:47:15;7.60;99.90
20654;DHT22;21083;50.898;4.902;2023-12-14T05:49:43;7.60;99.90
20654;DHT22;21083;50.898;4.902;2023-12-14T05:52:10;7.70;99.90
20654;DHT22;21083;50.898;4.902;2023-12-14T05:54:38;7.80;99.90
20654;DHT22;21083;50.898;4.902;2023-12-14T05:57:05;7.80;99.90
20654;DHT22;21083;50.898;4.902;2023-12-14T05:59:32;7.40;99.90
20654;DHT22;21083;50.898;4.902;2023-12-14T06:02:00;7.40;99.90
20654;DHT22;21083;50.898;4.902;2023-12-14T06:04:27;7.50;99.90
20654;DHT22;21083;50.898;4.902;2023-12-14T06:06:56;7.40;99.90
20654;DHT22;21083;50.898;4.902;2023-12-14T06:09:23;7.40;99.90
20654;DHT22;21083;50.898;4.902;2023-12-14T06:11:58;7.40;99.90
20654;DHT22;21083;50.898;4.902;2023-12-14T06:14:25;7.40;99.90
20654;DHT22;21083;50.898;4.902;2023-12-14T06:16:52;7.50;99.90
20654;DHT22;21083;50.898;4.902;2023-12-14T06:19:19;7.40;99.90
20654;DHT22;21083;50.898;4.902;2023-12-14T06:21:46;7.40;99.90
20654;DHT22;21083;50.898;4.902;2023-12-14T06:24:14;7.30;99.90
20654;DHT22;21083;50.898;4.902;2023-12-14T06:26:41;7.50;99.90
20654;DHT22;21083;50.898;4.902;2023-12-14T06:29:09;7.50;99.90
20654;DHT22;21083;50.898;4.902;2023-12-14T06:31:37;7.50;99.90
20654;DHT22;21083;50.898;4.902;2023-12-14T06:34:04;7.40;99.90
20654;DHT22;21083;50.898;4.902;2023-12-14T06:36:32;7.50;99.90
20654;DHT22;21083;50.898;4.902;2023-12-14T06:39:00;7.40;99.90
20654;DHT22;21083;50.898;4.902;2023-12-14T06:41:29;7.40;99.90
20654;DHT22;21083;50.898;4.902;2023-12-14T06:43:56;7.40;99.90
20654;DHT22;21083;50.898;4.902;2023-12-14T06:46:23;7.50;99.90
20654;DHT22;21083;50.898;4.902;2023-12-14T06:48:50;7.50;99.90
20654;DHT22;21083;50.898;4.902;2023-12-14T06:51:17;7.40;99.90
20654;DHT22;21083;50.898;4.902;2023-12-14T06:53:44;7.40;99.90
20654;DHT22;21083;50.898;4.902;2023-12-14T06:56:13;7.20;99.90
20654;DHT22;21083;50.898;4.902;2023-12-14T06:58:43;7.30;99.90
20654;DHT22;21083;50.898;4.902;2023-12-14T07:01:12;7.40;99.90
20654;DHT22;21083;50.898;4.902;2023-12-14T07:03:40;7.40;99.90
20654;DHT22;21083;50.898;4.902;2023-12-14T07:06:07;7.50;99.90
20654;DHT22;21083;50.898;4.902;2023-12-14T07:08:38;7.60;99.90
20654;DHT22;21083;50.898;4.902;2023-12-14T07:11:06;7.40;99.90
20654;DHT22;21083;50.898;4.902;2023-12-14T07:13:33;7.40;99.90
20654;DHT22;21083;50.898;4.902;2023-12-14T07:16:04;7.40;99.90
20654;DHT22;21083;50.898;4.902;2023-12-14T07:18:32;7.40;99.90
20654;DHT22;21083;50.898;4.902;2023-12-14T07:20:58;7.50;99.90
20654;DHT22;21083;50.898;4.902;2023-12-14T07:23:25;7.40;99.90
20654;DHT22;21083;50.898;4.902;2023-12-14T07:25:52;7.40;99.90
20654;DHT22;21083;50.898;4.902;2023-12-14T07:28:20;7.50;99.90
20654;DHT22;21083;50.898;4.902;2023-12-14T07:30:47;7.50;99.90
20654;DHT22;21083;50.898;4.902;2023-12-14T07:33:15;7.50;99.90
20654;DHT22;21083;50.898;4.902;2023-12-14T07:35:43;7.50;99.90
20654;DHT22;21083;50.898;4.902;2023-12-14T07:38:10;7.60;99.90
20654;DHT22;21083;50.898;4.902;2023-12-14T07:40:37;7.60;99.90
20654;DHT22;21083;50.898;4.902;2023-12-14T07:43:06;7.40;99.90
20654;DHT22;21083;50.898;4.902;2023-12-14T07:45:34;7.40;99.90
20654;DHT22;21083;50.898;4.902;2023-12-14T07:48:01;7.50;99.90
20654;DHT22;21083;50.898;4.902;2023-12-14T07:50:30;7.50;99.90
20654;DHT22;21083;50.898;4.902;2023-12-14T07:52:57;7.50;99.90
20654;DHT22;21083;50.898;4.902;2023-12-14T07:55:24;7.60;99.90
20654;DHT22;21083;50.898;4.902;2023-12-14T07:57:51;7.60;99.90
20654;DHT22;21083;50.898;4.902;2023-12-14T08:00:18;7.40;99.90
20654;DHT22;21083;50.898;4.902;2023-12-14T08:02:45;7.30;99.90
20654;DHT22;21083;50.898;4.902;2023-12-14T08:05:12;7.30;99.90
20654;DHT22;21083;50.898;4.902;2023-12-14T08:07:41;7.40;99.90
20654;DHT22;21083;50.898;4.902;2023-12-14T08:10:08;7.50;99.90
20654;DHT22;21083;50.898;4.902;2023-12-14T08:12:35;7.50;99.90
20654;DHT22;21083;50.898;4.902;2023-12-14T08:15:03;7.40;99.90
20654;DHT22;21083;50.898;4.902;2023-12-14T08:17:30;7.50;99.90
20654;DHT22;21083;50.898;4.902;2023-12-14T08:19:57;7.50;99.90
20654;DHT22;21083;50.898;4.902;2023-12-14T08:22:24;7.50;99.90
20654;DHT22;21083;50.898;4.902;2023-12-14T08:24:52;7.60;99.90
20654;DHT22;21083;50.898;4.902;2023-12-14T08:27:19;7.60;99.90
20654;DHT22;21083;50.898;4.902;2023-12-14T08:29:46;7.40;99.90
20654;DHT22;21083;50.898;4.902;2023-12-14T08:32:13;7.50;99.90
20654;DHT22;21083;50.898;4.902;2023-12-14T08:34:40;7.50;99.90
20654;DHT22;21083;50.898;4.902;2023-12-14T08:37:07;7.60;99.90
20654;DHT22;21083;50.898;4.902;2023-12-14T08:39:34;7.60;99.90
20654;DHT22;21083;50.898;4.902;2023-12-14T08:42:03;7.60;99.90
20654;DHT22;21083;50.898;4.902;2023-12-14T08:44:30;7.70;99.90
20654;DHT22;21083;50.898;4.902;2023-12-14T08:46:57;7.70;99.90
20654;DHT22;21083;50.898;4.902;2023-12-14T08:49:24;7.70;99.90
20654;DHT22;21083;50.898;4.902;2023-12-14T08:51:51;7.60;99.90
20654;DHT22;21083;50.898;4.902;2023-12-14T08:54:18;7.40;99.90
20654;DHT22;21083;50.898;4.902;2023-12-14T08:56:45;7.50;99.90
20654;DHT22;21083;50.898;4.902;2023-12-14T08:59:14;7.50;99.90
20654;DHT22;21083;50.898;4.902;2023-12-14T09:01:41;7.60;99.90
20654;DHT22;21083;50.898;4.902;2023-12-14T09:04:08;7.60;99.90
20654;DHT22;21083;50.898;4.902;2023-12-14T09:06:35;7.60;99.90
20654;DHT22;21083;50.898;4.902;2023-12-14T09:09:02;7.60;99.90
20654;DHT22;21083;50.898;4.902;2023-12-14T09:11:29;7.60;99.90
20654;DHT22;21083;50.898;4.902;2023-12-14T09:13:56;7.70;99.90
20654;DHT22;21083;50.898;4.902;2023-12-14T09:16:24;7.60;99.90
20654;DHT22;21083;50.898;4.902;2023-12-14T09:18:52;7.70;99.90
20654;DHT22;21083;50.898;4.902;2023-12-14T09:21:19;7.70;99.90
20654;DHT22;21083;50.898;4.902;2023-12-14T09:23:46;7.80;99.90
20654;DHT22;21083;50.898;4.902;2023-12-14T09:26:14;7.90;99.90
20654;DHT22;21083;50.898;4.902;2023-12-14T09:28:41;8.00;99.90
20654;DHT22;21083;50.898;4.902;2023-12-14T09:31:08;8.10;99.90
20654;DHT22;21083;50.898;4.902;2023-12-14T09:33:36;8.10;99.90
20654;DHT22;21083;50.898;4.902;2023-12-14T09:36:04;8.10;99.90
20654;DHT22;21083;50.898;4.902;2023-12-14T09:38:31;8.10;99.90
20654;DHT22;21083;50.898;4.902;2023-12-14T09:40:58;8.00;99.90
20654;DHT22;21083;50.898;4.902;2023-12-14T09:43:25;8.00;99.90
20654;DHT22;21083;50.898;4.902;2023-12-14T09:45:53;8.00;99.90
20654;DHT22;21083;50.898;4.902;2023-12-14T09:48:22;7.90;99.90
20654;DHT22;21083;50.898;4.902;2023-12-14T09:50:51;7.70;99.90
20654;DHT22;21083;50.898;4.902;2023-12-14T09:53:18;7.80;99.90
20654;DHT22;21083;50.898;4.902;2023-12-14T09:55:45;7.90;99.90
20654;DHT22;21083;50.898;4.902;2023-12-14T09:58:12;8.10;99.90
20654;DHT22;21083;50.898;4.902;2023-12-14T10:00:40;8.10;99.90
20654;DHT22;21083;50.898;4.902;2023-12-14T10:03:20;8.10;99.90
20654;DHT22;21083;50.898;4.902;2023-12-14T10:05:47;8.20;99.90
20654;DHT22;21083;50.898;4.902;2023-12-14T10:08:16;8.60;99.90
20654;DHT22;21083;50.898;4.902;2023-12-14T10:10:43;8.90;99.90
20654;DHT22;21083;50.898;4.902;2023-12-14T10:13:10;8.90;99.90
20654;DHT22;21083;50.898;4.902;2023-12-14T10:15:41;8.80;99.90
20654;DHT22;21083;50.898;4.902;2023-12-14T10:18:08;9.10;99.90
20654;DHT22;21083;50.898;4.902;2023-12-14T10:20:35;9.40;99.90
20654;DHT22;21083;50.898;4.902;2023-12-14T10:23:03;9.80;99.90
20654;DHT22;21083;50.898;4.902;2023-12-14T10:25:32;10.00;99.90
20654;DHT22;21083;50.898;4.902;2023-12-14T10:27:59;9.90;99.90
20654;DHT22;21083;50.898;4.902;2023-12-14T10:30:28;9.80;99.90
20654;DHT22;21083;50.898;4.902;2023-12-14T10:32:56;9.70;99.90
20654;DHT22;21083;50.898;4.902;2023-12-14T10:35:23;9.70;99.90
20654;DHT22;21083;50.898;4.902;2023-12-14T10:37:51;9.70;99.90
20654;DHT22;21083;50.898;4.902;2023-12-14T10:40:19;10.00;99.90
20654;DHT22;21083;50.898;4.902;2023-12-14T10:42:49;10.10;99.90
20654;DHT22;21083;50.898;4.902;2023-12-14T10:45:18;10.50;99.90
20654;DHT22;21083;50.898;4.902;2023-12-14T10:47:46;10.80;99.90
20654;DHT22;21083;50.898;4.902;2023-12-14T10:50:14;10.30;99.90
20654;DHT22;21083;50.898;4.902;2023-12-14T10:52:44;10.20;99.90
20654;DHT22;21083;50.898;4.902;2023-12-14T10:55:18;10.00;99.90
20654;DHT22;21083;50.898;4.902;2023-12-14T10:57:49;9.90;99.90
20654;DHT22;21083;50.898;4.902;2023-12-14T11:00:17;9.70;99.90
20654;DHT22;21083;50.898;4.902;2023-12-14T11:02:46;9.50;99.90
20654;DHT22;21083;50.898;4.902;2023-12-14T11:05:15;9.50;99.90
20654;DHT22;21083;50.898;4.902;2023-12-14T11:07:46;9.10;99.90
20654;DHT22;21083;50.898;4.902;2023-12-14T11:10:14;9.00;99.90
20654;DHT22;21083;50.898;4.902;2023-12-14T11:12:55;9.10;99.90
20654;DHT22;21083;50.898;4.902;2023-12-14T11:15:23;9.20;99.90
20654;DHT22;21083;50.898;4.902;2023-12-14T11:18:21;9.20;99.90
20654;DHT22;21083;50.898;4.902;2023-12-14T11:20:50;9.00;99.90
20654;DHT22;21083;50.898;4.902;2023-12-14T11:23:28;9.00;99.90
20654;DHT22;21083;50.898;4.902;2023-12-14T11:25:58;9.00;99.90
20654;DHT22;21083;50.898;4.902;2023-12-14T11:28:27;9.00;99.90
20654;DHT22;21083;50.898;4.902;2023-12-14T11:30:54;9.00;99.90
20654;DHT22;21083;50.898;4.902;2023-12-14T11:33:22;9.00;99.90
20654;DHT22;21083;50.898;4.902;2023-12-14T11:35:50;9.10;99.90
20654;DHT22;21083;50.898;4.902;2023-12-14T11:38:18;9.10;99.90
20654;DHT22;21083;50.898;4.902;2023-12-14T11:40:47;9.30;99.90
20654;DHT22;21083;50.898;4.902;2023-12-14T11:43:14;9.50;99.90
20654;DHT22;21083;50.898;4.902;2023-12-14T11:45:43;9.10;99.90
20654;DHT22;21083;50.898;4.902;2023-12-14T11:48:12;9.10;99.90
20654;DHT22;21083;50.898;4.902;2023-12-14T11:50:39;9.60;99.90
20654;DHT22;21083;50.898;4.902;2023-12-14T11:53:07;9.80;99.90
20654;DHT22;21083;50.898;4.902;2023-12-14T11:55:35;9.70;99.90
20654;DHT22;21083;50.898;4.902;2023-12-14T11:58:03;9.60;99.90
20654;DHT22;21083;50.898;4.902;2023-12-14T12:00:31;9.80;99.90
20654;DHT22;21083;50.898;4.902;2023-12-14T12:03:11;10.10;99.90
20654;DHT22;21083;50.898;4.902;2023-12-14T12:05:39;10.30;99.90
20654;DHT22;21083;50.898;4.902;2023-12-14T12:08:07;10.50;99.90
20654;DHT22;21083;50.898;4.902;2023-12-14T12:10:34;10.30;99.90
20654;DHT22;21083;50.898;4.902;2023-12-14T12:13:02;10.20;99.90
20654;DHT22;21083;50.898;4.902;2023-12-14T12:15:31;10.20;99.90
20654;DHT22;21083;50.898;4.902;2023-12-14T12:17:58;10.00;99.90
20654;DHT22;21083;50.898;4.902;2023-12-14T12:20:27;9.70;99.90
20654;DHT22;21083;50.898;4.902;2023-12-14T12:22:54;9.50;99.90
20654;DHT22;21083;50.898;4.902;2023-12-14T12:25:21;9.30;99.90
20654;DHT22;21083;50.898;4.902;2023-12-14T12:27:48;8.90;99.90
20654;DHT22;21083;50.898;4.902;2023-12-14T12:30:15;8.60;99.90
20654;DHT22;21083;50.898;4.902;2023-12-14T12:32:42;8.70;99.90
20654;DHT22;21083;50.898;4.902;2023-12-14T12:35:10;8.70;99.90
20654;DHT22;21083;50.898;4.902;2023-12-14T12:37:38;8.70;99.90
20654;DHT22;21083;50.898;4.902;2023-12-14T12:40:06;8.60;99.90
20654;DHT22;21083;50.898;4.902;2023-12-14T12:42:36;8.60;99.90
20654;DHT22;21083;50.898;4.902;2023-12-14T12:45:04;8.60;99.90
20654;DHT22;21083;50.898;4.902;2023-12-14T12:47:31;8.50;99.90
20654;DHT22;21083;50.898;4.902;2023-12-14T12:49:58;8.30;99.90
20654;DHT22;21083;50.898;4.902;2023-12-14T12:52:25;8.20;99.90
20654;DHT22;21083;50.898;4.902;2023-12-14T12:54:53;8.30;99.90
20654;DHT22;21083;50.898;4.902;2023-12-14T12:57:20;8.10;99.90
20654;DHT22;21083;50.898;4.902;2023-12-14T12:59:47;8.10;99.90
20654;DHT22;21083;50.898;4.902;2023-12-14T13:02:14;8.10;99.90
20654;DHT22;21083;50.898;4.902;2023-12-14T13:04:41;8.10;99.90
20654;DHT22;21083;50.898;4.902;2023-12-14T13:07:08;8.10;99.90
20654;DHT22;21083;50.898;4.902;2023-12-14T13:09:37;8.20;99.90
20654;DHT22;21083;50.898;4.902;2023-12-14T13:12:06;8.30;99.90
20654;DHT22;21083;50.898;4.902;2023-12-14T13:14:35;8.20;99.90
20654;DHT22;21083;50.898;4.902;2023-12-14T13:17:02;8.10;99.90
20654;DHT22;21083;50.898;4.902;2023-12-14T13:19:30;8.10;99.90
20654;DHT22;21083;50.898;4.902;2023-12-14T13:21:56;8.20;99.90
20654;DHT22;21083;50.898;4.902;2023-12-14T13:24:25;8.20;99.90
20654;DHT22;21083;50.898;4.902;2023-12-14T13:26:52;8.10;99.90
20654;DHT22;21083;50.898;4.902;2023-12-14T13:29:20;8.00;99.90
20654;DHT22;21083;50.898;4.902;2023-12-14T13:31:48;8.00;99.90
20654;DHT22;21083;50.898;4.902;2023-12-14T13:34:15;7.90;99.90
20654;DHT22;21083;50.898;4.902;2023-12-14T13:36:42;7.90;99.90
20654;DHT22;21083;50.898;4.902;2023-12-14T13:39:09;8.00;99.90
20654;DHT22;21083;50.898;4.902;2023-12-14T13:41:37;7.90;99.90
20654;DHT22;21083;50.898;4.902;2023-12-14T13:44:04;8.20;99.90
20654;DHT22;21083;50.898;4.902;2023-12-14T13:46:32;8.40;99.90
20654;DHT22;21083;50.898;4.902;2023-12-14T13:48:59;8.30;99.90
20654;DHT22;21083;50.898;4.902;2023-12-14T13:51:27;8.30;99.90
20654;DHT22;21083;50.898;4.902;2023-12-14T13:53:54;8.40;99.90
20654;DHT22;21083;50.898;4.902;2023-12-14T13:56:21;8.40;99.90
20654;DHT22;21083;50.898;4.902;2023-12-14T13:58:48;8.30;99.90
20654;DHT22;21083;50.898;4.902;2023-12-14T14:01:15;8.40;99.90
20654;DHT22;21083;50.898;4.902;2023-12-14T14:03:45;8.20;99.90
20654;DHT22;21083;50.898;4.902;2023-12-14T14:06:12;8.20;99.90
20654;DHT22;21083;50.898;4.902;2023-12-14T14:08:38;8.20;99.90
20654;DHT22;21083;50.898;4.902;2023-12-14T14:11:05;8.10;99.90
20654;DHT22;21083;50.898;4.902;2023-12-14T14:13:32;8.00;99.90
20654;DHT22;21083;50.898;4.902;2023-12-14T14:15:59;7.90;99.90
20654;DHT22;21083;50.898;4.902;2023-12-14T14:18:26;8.00;99.90
20654;DHT22;21083;50.898;4.902;2023-12-14T14:20:55;8.30;99.90
20654;DHT22;21083;50.898;4.902;2023-12-14T14:23:22;8.40;99.90
20654;DHT22;21083;50.898;4.902;2023-12-14T14:25:51;8.30;99.90
20654;DHT22;21083;50.898;4.902;2023-12-14T14:28:20;8.40;99.90
20654;DHT22;21083;50.898;4.902;2023-12-14T14:30:47;8.30;99.90
20654;DHT22;21083;50.898;4.902;2023-12-14T14:33:15;8.20;99.90
20654;DHT22;21083;50.898;4.902;2023-12-14T14:35:44;8.30;99.90
20654;DHT22;21083;50.898;4.902;2023-12-14T14:38:12;8.30;99.90
20654;DHT22;21083;50.898;4.902;2023-12-14T14:40:40;8.40;99.90
20654;DHT22;21083;50.898;4.902;2023-12-14T14:43:07;8.30;99.90
20654;DHT22;21083;50.898;4.902;2023-12-14T14:45:35;8.20;99.90
20654;DHT22;21083;50.898;4.902;2023-12-14T14:48:03;8.30;99.90
20654;DHT22;21083;50.898;4.902;2023-12-14T14:50:33;8.30;99.90
20654;DHT22;21083;50.898;4.902;2023-12-14T14:53:01;8.10;99.90
20654;DHT22;21083;50.898;4.902;2023-12-14T14:55:30;8.30;99.90
20654;DHT22;21083;50.898;4.902;2023-12-14T14:57:58;8.30;99.90
20654;DHT22;21083;50.898;4.902;2023-12-14T15:00:25;8.30;99.90
20654;DHT22;21083;50.898;4.902;2023-12-14T15:02:52;8.30;99.90
20654;DHT22;21083;50.898;4.902;2023-12-14T15:05:19;8.40;99.90
20654;DHT22;21083;50.898;4.902;2023-12-14T15:07:46;8.40;99.90
20654;DHT22;21083;50.898;4.902;2023-12-14T15:10:13;8.50;99.90
20654;DHT22;21083;50.898;4.902;2023-12-14T15:12:42;8.50;99.90
20654;DHT22;21083;50.898;4.902;2023-12-14T15:15:09;8.50;99.90
20654;DHT22;21083;50.898;4.902;2023-12-14T15:17:36;8.50;99.90
20654;DHT22;21083;50.898;4.902;2023-12-14T15:20:04;8.50;99.90
20654;DHT22;21083;50.898;4.902;2023-12-14T15:22:32;8.50;99.90
20654;DHT22;21083;50.898;4.902;2023-12-14T15:24:58;8.40;99.90
20654;DHT22;21083;50.898;4.902;2023-12-14T15:27:26;8.40;99.90
20654;DHT22;21083;50.898;4.902;2023-12-14T15:29:55;8.50;99.90
20654;DHT22;21083;50.898;4.902;2023-12-14T15:32:22;8.50;99.90
20654;DHT22;21083;50.898;4.902;2023-12-14T15:34:49;8.50;99.90
20654;DHT22;21083;50.898;4.902;2023-12-14T15:37:16;8.60;99.90
20654;DHT22;21083;50.898;4.902;2023-12-14T15:39:46;8.60;99.90
20654;DHT22;21083;50.898;4.902;2023-12-14T15:42:14;8.60;99.90
20654;DHT22;21083;50.898;4.902;2023-12-14T15:44:41;8.60;99.90
20654;DHT22;21083;50.898;4.902;2023-12-14T15:47:11;8.50;99.90